Time;durP1;ratioP1;P1;durP2;ratioP2;P2;SDS_P1;SDS_P2;PMS_P1;PMS_P2;Temp;Humidity;BMP_temperature;BMP_pressure;BME280_temperature;BME280_humidity;BME280_pressure;Samples;Min_cycle;Max_cycle;Signal;HPM_P1;HPM_P2
2024/02/11 00:02:15;;;;;;;39.50;33.70;;;11.90;99.90;;;;;;5149051;27;20710;-79
2024/02/11 00:04:44;;;;;;;42.83;33.10;;;11.90;99.90;;;;;;5140046;27;20248;-80
2024/02/11 00:07:14;;;;;;;37.63;30.55;;;11.90;99.90;;;;;;5144249;27;20221;-77
2024/02/11 00:09:41;;;;;;;43.95;33.75;;;11.90;99.90;;;;;;5150171;27;20245;-76
2024/02/11 00:12:09;;;;;;;44.47;33.80;;;11.90;99.90;;;;;;5137472;27;20222;-76
2024/02/11 00:14:36;;;;;;;45.58;34.05;;;11.90;99.90;;;;;;5140641;27;20698;-79
2024/02/11 00:17:04;;;;;;;46.53;33.75;;;11.90;99.90;;;;;;5152582;27;20713;-77
2024/02/11 00:19:32;;;;;;;44.17;33.47;;;11.90;99.90;;;;;;5135659;27;20674;-79
2024/02/11 00:22:01;;;;;;;42.40;35.53;;;11.90;99.90;;;;;;5116305;27;20246;-77
2024/02/11 00:24:31;;;;;;;44.42;34.75;;;12.00;99.90;;;;;;5150634;27;20221;-77
2024/02/11 00:26:58;;;;;;;41.75;32.47;;;12.00;99.90;;;;;;5150538;27;20213;-76
2024/02/11 00:29:26;;;;;;;46.28;35.08;;;12.00;99.90;;;;;;5138365;27;20670;-79
2024/02/11 00:31:56;;;;;;;43.25;32.97;;;12.00;99.90;;;;;;5133015;27;20695;-78
2024/02/11 00:34:23;;;;;;;42.95;34.08;;;11.90;99.90;;;;;;5121736;27;20308;-77
2024/02/11 00:36:52;;;;;;;40.72;31.42;;;11.90;99.90;;;;;;5138185;27;20298;-76
2024/02/11 00:39:19;;;;;;;44.75;34.92;;;12.00;99.90;;;;;;5134512;27;20233;-76
2024/02/11 00:41:46;;;;;;;43.55;34.15;;;12.00;99.90;;;;;;5147494;27;20217;-76
2024/02/11 00:44:15;;;;;;;50.20;37.38;;;11.90;99.90;;;;;;5142268;27;20230;-78
2024/02/11 00:46:42;;;;;;;50.83;37.28;;;11.90;99.90;;;;;;5137063;27;20209;-79
2024/02/11 00:49:09;;;;;;;51.63;37.83;;;11.90;99.90;;;;;;5146358;27;20257;-79
2024/02/11 00:51:36;;;;;;;51.63;37.08;;;11.90;99.90;;;;;;5131006;27;20602;-76
2024/02/11 00:54:05;;;;;;;44.25;36.30;;;11.90;99.90;;;;;;5139518;27;20228;-79
2024/02/11 00:56:32;;;;;;;47.38;35.25;;;11.90;99.90;;;;;;5133609;27;20257;-79
2024/02/11 00:58:59;;;;;;;54.13;36.72;;;11.80;99.90;;;;;;5134455;27;20209;-79
2024/02/11 01:01:26;;;;;;;51.92;38.13;;;11.80;99.90;;;;;;5145496;27;20213;-79
2024/02/11 01:03:57;;;;;;;55.13;39.13;;;11.80;99.90;;;;;;5142809;27;20638;-77
2024/02/11 01:06:24;;;;;;;52.97;39.10;;;11.70;99.90;;;;;;5124847;27;20214;-76
2024/02/11 01:08:51;;;;;;;46.67;35.63;;;11.70;99.90;;;;;;5133625;27;20226;-77
2024/02/11 01:11:24;;;;;;;50.10;35.53;;;11.80;99.90;;;;;;5138177;27;20214;-79
2024/02/11 01:13:51;;;;;;;49.15;36.65;;;11.70;99.90;;;;;;5140788;27;20229;-79
2024/02/11 01:16:19;;;;;;;50.97;37.83;;;11.70;99.90;;;;;;5133026;28;20247;-79
2024/02/11 01:18:46;;;;;;;51.42;36.38;;;11.70;99.90;;;;;;5139057;27;20648;-79
2024/02/11 01:21:18;;;;;;;51.97;36.95;;;11.70;99.90;;;;;;5126859;27;20664;-77
2024/02/11 01:23:47;;;;;;;55.08;39.83;;;11.60;99.90;;;;;;5122369;27;20305;-77
2024/02/11 01:26:14;;;;;;;52.22;36.08;;;11.60;99.90;;;;;;5119440;27;20252;-77
2024/02/11 01:28:44;;;;;;;54.83;38.75;;;11.60;99.90;;;;;;5130041;27;20230;-77
2024/02/11 01:31:11;;;;;;;55.67;38.90;;;11.60;99.90;;;;;;5131305;27;20660;-80
2024/02/11 01:33:38;;;;;;;49.13;35.35;;;11.50;99.90;;;;;;5134144;27;20284;-80
2024/02/11 01:36:08;;;;;;;55.25;38.75;;;11.60;99.90;;;;;;5136189;27;20233;-77
2024/02/11 01:38:35;;;;;;;48.75;36.45;;;11.50;99.90;;;;;;5131640;27;20219;-80
2024/02/11 01:41:02;;;;;;;55.30;37.67;;;11.50;99.90;;;;;;5130683;27;20236;-80
2024/02/11 01:43:30;;;;;;;51.22;38.20;;;11.50;99.90;;;;;;5130646;27;20219;-80
2024/02/11 01:45:58;;;;;;;52.92;37.88;;;11.50;99.90;;;;;;5119671;27;20295;-80
2024/02/11 01:48:33;;;;;;;53.47;36.63;;;11.40;99.90;;;;;;5140606;27;20221;-77
2024/02/11 01:51:02;;;;;;;54.22;38.90;;;11.40;99.90;;;;;;5142697;27;20222;-76
2024/02/11 01:53:30;;;;;;;57.50;38.20;;;11.30;99.90;;;;;;5144046;27;20217;-77
2024/02/11 01:55:57;;;;;;;52.35;36.17;;;11.30;99.90;;;;;;5136995;27;20226;-77
2024/02/11 01:58:24;;;;;;;56.97;38.35;;;11.30;99.90;;;;;;5116616;28;20237;-77
2024/02/11 02:00:57;;;;;;;53.28;37.45;;;11.40;99.90;;;;;;5114715;28;20218;-77
2024/02/11 02:03:27;;;;;;;56.90;35.95;;;11.40;99.90;;;;;;5113140;28;20227;-77
2024/02/11 02:05:56;;;;;;;50.17;36.97;;;11.40;99.90;;;;;;5124297;27;20259;-76
2024/02/11 02:08:23;;;;;;;56.70;36.67;;;11.40;99.90;;;;;;5134867;27;20766;-76
2024/02/11 02:10:50;;;;;;;57.42;36.53;;;11.50;99.90;;;;;;5133355;27;20304;-76
2024/02/11 02:13:17;;;;;;;54.78;36.63;;;11.50;99.90;;;;;;5133705;27;20771;-77
2024/02/11 02:15:44;;;;;;;52.55;36.85;;;11.50;99.90;;;;;;5133683;27;20222;-76
2024/02/11 02:18:11;;;;;;;50.05;35.03;;;11.60;99.90;;;;;;5134349;27;20221;-76
2024/02/11 02:20:40;;;;;;;56.22;37.53;;;11.60;99.90;;;;;;5134273;27;20297;-76
2024/02/11 02:23:09;;;;;;;56.13;37.25;;;11.70;99.90;;;;;;5135465;27;20723;-76
2024/02/11 02:25:36;;;;;;;56.58;37.60;;;11.70;99.90;;;;;;5135943;27;20241;-76
2024/02/11 02:28:05;;;;;;;51.22;35.78;;;11.60;99.90;;;;;;5136512;27;20225;-76
2024/02/11 02:30:33;;;;;;;55.05;35.85;;;11.60;99.90;;;;;;5136074;27;20309;-77
2024/02/11 02:33:00;;;;;;;52.65;36.38;;;11.60;99.90;;;;;;5136413;27;20232;-76
2024/02/11 02:35:27;;;;;;;55.28;35.45;;;11.60;99.90;;;;;;5135535;27;20222;-76
2024/02/11 02:37:54;;;;;;;67.22;37.30;;;11.60;99.90;;;;;;5136090;27;20258;-77
2024/02/11 02:40:26;;;;;;;53.55;35.90;;;11.60;99.90;;;;;;5136041;27;20222;-77
2024/02/11 02:42:53;;;;;;;49.47;35.75;;;11.60;99.90;;;;;;5136179;27;20611;-77
2024/02/11 02:45:21;;;;;;;56.80;35.78;;;11.60;99.90;;;;;;5135622;27;20222;-77
2024/02/11 02:47:48;;;;;;;49.55;33.25;;;11.60;99.90;;;;;;5136321;27;20725;-76
2024/02/11 02:50:16;;;;;;;50.25;32.38;;;11.60;99.90;;;;;;5135312;27;20257;-76
2024/02/11 02:52:44;;;;;;;55.05;35.90;;;11.60;99.90;;;;;;5136853;27;20226;-76
2024/02/11 02:55:11;;;;;;;54.10;34.65;;;11.60;99.90;;;;;;5156694;27;20228;-77
2024/02/11 02:57:39;;;;;;;50.92;34.42;;;11.60;99.90;;;;;;5156292;27;20229;-76
2024/02/11 03:00:08;;;;;;;48.47;35.25;;;11.60;99.90;;;;;;5156951;27;20296;-77
2024/02/11 03:02:35;;;;;;;49.53;33.03;;;11.60;99.90;;;;;;5156273;27;20225;-76
2024/02/11 03:05:05;;;;;;;47.45;32.42;;;11.60;99.90;;;;;;5156694;27;20285;-80
2024/02/11 03:07:33;;;;;;;52.25;33.25;;;11.60;99.90;;;;;;5156406;27;20259;-79
2024/02/11 03:10:00;;;;;;;46.97;34.58;;;11.70;99.90;;;;;;5156650;27;20248;-77
2024/02/11 03:12:27;;;;;;;49.70;32.17;;;11.60;99.90;;;;;;5155780;27;20225;-76
2024/02/11 03:14:56;;;;;;;49.33;34.15;;;11.60;99.90;;;;;;5156649;27;20555;-76
2024/02/11 03:17:23;;;;;;;53.75;33.95;;;11.60;99.90;;;;;;5155856;27;20422;-76
2024/02/11 03:19:50;;;;;;;50.35;33.17;;;11.60;99.90;;;;;;5156484;27;20240;-79
2024/02/11 03:22:17;;;;;;;49.85;31.70;;;11.40;99.90;;;;;;5156508;27;20229;-80
2024/02/11 03:24:45;;;;;;;57.30;34.65;;;11.40;99.90;;;;;;5155789;27;20693;-80
2024/02/11 03:27:12;;;;;;;50.45;32.15;;;11.40;99.90;;;;;;5156268;27;20298;-79
2024/02/11 03:29:39;;;;;;;51.03;33.65;;;11.30;99.90;;;;;;5155980;27;20221;-79
2024/02/11 03:32:08;;;;;;;46.70;32.10;;;11.30;99.90;;;;;;5156325;27;20245;-76
2024/02/11 03:34:35;;;;;;;46.88;33.08;;;11.20;99.90;;;;;;5141519;27;20290;-76
2024/02/11 03:37:02;;;;;;;52.28;32.50;;;11.20;99.90;;;;;;5135375;27;20222;-79
2024/02/11 03:39:29;;;;;;;50.65;30.77;;;11.20;99.90;;;;;;5134920;27;20710;-76
2024/02/11 03:41:56;;;;;;;51.33;32.33;;;11.20;99.90;;;;;;5131228;27;20667;-76
2024/02/11 03:44:24;;;;;;;46.00;32.20;;;11.20;99.90;;;;;;5126995;27;20241;-76
2024/02/11 03:46:51;;;;;;;55.15;33.67;;;11.20;99.90;;;;;;5134892;27;20558;-79
2024/02/11 03:49:20;;;;;;;50.40;32.95;;;11.30;99.90;;;;;;5134296;27;20225;-79
2024/02/11 03:51:48;;;;;;;51.28;32.88;;;11.30;99.90;;;;;;5134358;27;20275;-79
2024/02/11 03:54:15;;;;;;;52.15;32.15;;;11.30;99.90;;;;;;5148749;27;20249;-80
2024/02/11 03:56:42;;;;;;;53.90;31.20;;;11.30;99.90;;;;;;5155389;27;20671;-79
2024/02/11 03:59:15;;;;;;;50.30;32.00;;;11.30;99.90;;;;;;5155814;27;20822;-79
2024/02/11 04:01:42;;;;;;;46.40;31.50;;;11.30;99.90;;;;;;5155148;27;20217;-79
2024/02/11 04:04:09;;;;;;;46.63;31.55;;;11.30;99.90;;;;;;5155658;27;20244;-79
2024/02/11 04:06:37;;;;;;;50.33;31.90;;;11.30;99.90;;;;;;5154760;27;20212;-79
2024/02/11 04:09:09;;;;;;;44.53;29.40;;;11.30;99.90;;;;;;5155213;27;20217;-79
2024/02/11 04:11:36;;;;;;;49.03;31.45;;;11.30;99.90;;;;;;5154981;27;20224;-80
2024/02/11 04:14:05;;;;;;;48.03;30.00;;;11.40;99.90;;;;;;5154868;27;20225;-79
2024/02/11 04:16:33;;;;;;;49.72;31.30;;;11.40;99.90;;;;;;5155087;27;20304;-77
2024/02/11 04:19:01;;;;;;;45.72;31.77;;;11.40;99.90;;;;;;5155191;27;20349;-79
2024/02/11 04:21:35;;;;;;;45.25;30.35;;;11.40;99.90;;;;;;5155270;27;20216;-76
2024/02/11 04:24:04;;;;;;;48.53;30.98;;;11.40;99.90;;;;;;5154874;27;20232;-76
2024/02/11 04:26:33;;;;;;;50.28;31.58;;;11.40;99.90;;;;;;5155314;27;20209;-79
2024/02/11 04:29:00;;;;;;;51.65;32.00;;;11.40;99.90;;;;;;5154783;27;20242;-80
2024/02/11 04:31:28;;;;;;;48.78;33.65;;;11.40;99.90;;;;;;5155069;27;20626;-80
2024/02/11 04:33:55;;;;;;;48.30;32.17;;;11.40;99.90;;;;;;5154647;27;20233;-76
2024/02/11 04:36:24;;;;;;;43.88;30.08;;;11.40;99.90;;;;;;5151878;27;20716;-79
2024/02/11 04:38:51;;;;;;;50.03;32.15;;;11.30;99.90;;;;;;5133752;27;20312;-76
2024/02/11 04:41:19;;;;;;;56.47;33.53;;;11.30;99.90;;;;;;5134190;27;20214;-76
2024/02/11 04:43:48;;;;;;;43.38;31.15;;;11.30;99.90;;;;;;5133537;27;20225;-79
2024/02/11 04:46:16;;;;;;;50.20;31.45;;;11.30;99.90;;;;;;5134342;27;20552;-76
2024/02/11 04:48:43;;;;;;;53.92;32.72;;;11.30;99.90;;;;;;5133601;28;20251;-79
2024/02/11 04:51:10;;;;;;;43.85;31.80;;;11.30;99.90;;;;;;5134076;28;20245;-79
2024/02/11 04:53:38;;;;;;;49.40;32.22;;;11.30;99.90;;;;;;5133720;28;20229;-79
2024/02/11 04:56:07;;;;;;;56.00;32.47;;;11.30;99.90;;;;;;5133848;28;20209;-79
2024/02/11 04:58:36;;;;;;;49.75;32.30;;;11.30;99.90;;;;;;5134038;28;20225;-77
2024/02/11 05:01:03;;;;;;;48.97;30.75;;;11.40;99.90;;;;;;5134879;27;20551;-76
2024/02/11 05:03:30;;;;;;;48.05;32.13;;;11.40;99.90;;;;;;5138096;27;20304;-80
2024/02/11 05:05:59;;;;;;;51.60;31.27;;;11.40;99.90;;;;;;5136307;27;20297;-76
2024/02/11 05:08:27;;;;;;;46.58;32.40;;;11.40;99.90;;;;;;5137804;27;20302;-76
2024/02/11 05:10:55;;;;;;;53.83;33.47;;;11.40;99.90;;;;;;5136537;27;20301;-79
2024/02/11 05:13:23;;;;;;;51.53;31.27;;;11.40;99.90;;;;;;5138106;27;20682;-79
2024/02/11 05:15:53;;;;;;;57.30;34.65;;;11.40;99.90;;;;;;5137150;27;20226;-76
2024/02/11 05:18:20;;;;;;;54.47;33.90;;;11.30;99.90;;;;;;5138030;27;20221;-80
2024/02/11 05:20:47;;;;;;;50.80;33.03;;;11.40;99.90;;;;;;5136969;27;20305;-80
2024/02/11 05:23:15;;;;;;;48.50;32.15;;;11.40;99.90;;;;;;5136536;27;20226;-80
2024/02/11 05:25:44;;;;;;;55.80;37.22;;;11.40;99.90;;;;;;5138047;27;20217;-79
2024/02/11 05:28:13;;;;;;;47.47;32.00;;;11.40;99.90;;;;;;5136850;27;20221;-76
2024/02/11 05:30:43;;;;;;;49.25;32.35;;;11.50;99.90;;;;;;5137643;27;20253;-80
2024/02/11 05:33:12;;;;;;;44.97;31.77;;;11.50;99.90;;;;;;5137167;27;20226;-76
2024/02/11 05:35:40;;;;;;;54.20;33.38;;;11.50;99.90;;;;;;5137559;27;20735;-76
2024/02/11 05:38:08;;;;;;;50.92;31.55;;;11.40;99.90;;;;;;5136998;27;20236;-79
2024/02/11 05:40:41;;;;;;;54.45;33.22;;;11.40;99.90;;;;;;5137538;27;20235;-79
2024/02/11 05:43:09;;;;;;;53.75;32.15;;;11.40;99.90;;;;;;5137268;27;20245;-76
2024/02/11 05:45:38;;;;;;;50.15;30.90;;;11.40;99.90;;;;;;5137779;27;20671;-79
2024/02/11 05:48:06;;;;;;;54.08;32.83;;;11.30;99.90;;;;;;5136963;27;20268;-79
2024/02/11 05:50:34;;;;;;;54.13;34.45;;;11.30;99.90;;;;;;5137135;27;20260;-79
2024/02/11 05:53:02;;;;;;;50.25;31.65;;;11.30;99.90;;;;;;5137308;27;20229;-79
2024/02/11 05:55:29;;;;;;;53.03;34.15;;;11.20;99.90;;;;;;5136888;27;20218;-76
2024/02/11 05:57:56;;;;;;;50.97;31.95;;;11.20;99.90;;;;;;5137051;27;20218;-79
2024/02/11 06:00:24;;;;;;;48.95;31.92;;;11.20;99.90;;;;;;5137247;27;20222;-76
2024/02/11 06:02:53;;;;;;;61.85;35.33;;;11.10;99.90;;;;;;5136752;27;20257;-76
2024/02/11 06:05:21;;;;;;;50.78;32.67;;;11.10;99.90;;;;;;5137543;27;20266;-76
2024/02/11 06:07:51;;;;;;;53.70;32.92;;;11.10;99.90;;;;;;5137247;27;20222;-79
2024/02/11 06:10:20;;;;;;;53.22;32.97;;;11.10;99.90;;;;;;5136757;27;20221;-79
2024/02/11 06:12:48;;;;;;;59.15;33.10;;;11.10;99.90;;;;;;5136579;27;20313;-80
2024/02/11 06:15:20;;;;;;;52.38;32.63;;;11.10;99.90;;;;;;5136600;27;20301;-79
2024/02/11 06:17:47;;;;;;;52.92;32.72;;;11.10;99.90;;;;;;5137067;27;20232;-80
2024/02/11 06:20:17;;;;;;;53.22;34.38;;;11.10;99.90;;;;;;5136262;27;20233;-76
2024/02/11 06:22:46;;;;;;;50.40;31.60;;;11.10;99.90;;;;;;5136679;27;20226;-76
2024/02/11 06:25:15;;;;;;;48.88;32.05;;;11.10;99.90;;;;;;5136364;27;20244;-76
2024/02/11 06:27:42;;;;;;;50.20;32.05;;;11.10;99.90;;;;;;5136500;27;20286;-79
2024/02/11 06:30:12;;;;;;;55.90;31.52;;;11.10;99.90;;;;;;5136176;27;20671;-79
2024/02/11 06:32:40;;;;;;;53.58;31.92;;;11.00;99.90;;;;;;5136950;27;20298;-76
2024/02/11 06:35:09;;;;;;;49.50;32.53;;;11.00;99.90;;;;;;5136197;27;20614;-77
2024/02/11 06:37:37;;;;;;;58.97;35.63;;;11.00;99.90;;;;;;5136591;27;20222;-76
2024/02/11 06:40:06;;;;;;;55.53;33.78;;;10.90;99.90;;;;;;5136049;27;20249;-76
2024/02/11 06:42:35;;;;;;;47.53;31.52;;;10.90;99.90;;;;;;5136322;27;20218;-76
2024/02/11 06:45:02;;;;;;;53.75;32.55;;;10.90;99.90;;;;;;5136267;27;20664;-79
2024/02/11 06:47:30;;;;;;;59.30;32.13;;;10.80;99.90;;;;;;5136311;27;20218;-79
2024/02/11 06:49:58;;;;;;;50.38;31.33;;;10.80;99.90;;;;;;5135681;27;20309;-78
2024/02/11 06:52:25;;;;;;;52.92;33.58;;;10.80;99.90;;;;;;5136270;27;20561;-76
2024/02/11 06:54:53;;;;;;;57.67;32.97;;;10.80;99.90;;;;;;5136228;27;20226;-76
2024/02/11 06:57:26;;;;;;;58.70;32.50;;;10.80;99.90;;;;;;5136001;27;20305;-76
2024/02/11 06:59:55;;;;;;;51.03;30.70;;;10.80;99.90;;;;;;5136001;27;20257;-76
2024/02/11 07:02:22;;;;;;;53.22;34.30;;;10.80;99.90;;;;;;5135290;27;20245;-76
2024/02/11 07:04:55;;;;;;;58.08;33.70;;;10.80;99.90;;;;;;5136092;27;20222;-76
2024/02/11 07:07:24;;;;;;;53.65;32.75;;;10.80;99.90;;;;;;5135266;27;20685;-76
2024/02/11 07:09:51;;;;;;;58.42;33.45;;;10.80;99.90;;;;;;5136341;27;20217;-79
2024/02/11 07:12:19;;;;;;;49.72;31.63;;;10.80;99.90;;;;;;5135422;27;20230;-76
2024/02/11 07:14:46;;;;;;;51.70;33.05;;;10.70;99.90;;;;;;5135836;27;20253;-76
2024/02/11 07:17:16;;;;;;;59.13;35.08;;;10.70;99.90;;;;;;5135681;27;20304;-76
2024/02/11 07:19:43;;;;;;;70.53;32.90;;;10.70;99.90;;;;;;5135840;27;20306;-77
2024/02/11 07:22:11;;;;;;;51.05;33.78;;;10.60;99.90;;;;;;5135599;27;20222;-77
2024/02/11 07:24:39;;;;;;;55.00;31.67;;;10.70;99.90;;;;;;5134700;27;20263;-77
2024/02/11 07:27:09;;;;;;;56.50;35.03;;;10.70;99.90;;;;;;5137114;27;20296;-78
2024/02/11 07:29:38;;;;;;;57.55;34.70;;;10.70;99.90;;;;;;5137322;27;20275;-76
2024/02/11 07:32:05;;;;;;;54.88;31.55;;;10.70;99.90;;;;;;5135058;27;20283;-77
2024/02/11 07:34:34;;;;;;;53.47;31.80;;;10.70;99.90;;;;;;5135044;27;20218;-76
2024/02/11 07:37:02;;;;;;;52.10;32.65;;;10.70;99.90;;;;;;5135394;27;20228;-77
2024/02/11 07:39:30;;;;;;;51.92;31.35;;;10.70;99.90;;;;;;5135286;27;20225;-76
2024/02/11 07:41:58;;;;;;;57.05;30.85;;;10.70;99.90;;;;;;5135458;27;20250;-80
2024/02/11 07:44:25;;;;;;;51.55;30.30;;;10.80;99.90;;;;;;5136701;27;20266;-80
2024/02/11 07:46:53;;;;;;;66.88;33.75;;;10.80;99.90;;;;;;5135774;27;20282;-76
2024/02/11 07:49:23;;;;;;;53.75;30.95;;;10.80;99.90;;;;;;5134716;27;20309;-77
2024/02/11 07:51:51;;;;;;;59.45;32.97;;;10.80;99.90;;;;;;5123982;27;20272;-76
2024/02/11 07:54:20;;;;;;;58.35;31.40;;;10.80;99.90;;;;;;5133955;27;20226;-76
2024/02/11 07:56:50;;;;;;;49.15;30.05;;;10.80;99.90;;;;;;5135304;27;20275;-76
2024/02/11 07:59:17;;;;;;;56.40;32.25;;;10.80;99.90;;;;;;5134850;27;20234;-76
2024/02/11 08:01:45;;;;;;;51.17;31.30;;;10.80;99.90;;;;;;5135027;27;20225;-76
2024/02/11 08:04:16;;;;;;;51.88;29.02;;;10.80;99.90;;;;;;5134529;27;20226;-76
2024/02/11 08:06:43;;;;;;;54.70;32.45;;;10.80;99.90;;;;;;5135165;27;20299;-76
2024/02/11 08:12:08;;;;;;;52.80;30.52;;;10.70;99.90;;;;;;5071562;28;20224;-77
2024/02/11 08:14:37;;;;;;;47.67;29.95;;;10.70;99.90;;;;;;5120259;27;20217;-79
2024/02/11 08:17:09;;;;;;;58.05;33.25;;;10.70;99.90;;;;;;5134706;27;20250;-79
2024/02/11 08:19:36;;;;;;;48.65;30.67;;;10.70;99.90;;;;;;5134291;27;20313;-79
2024/02/11 08:22:08;;;;;;;52.95;30.65;;;10.70;99.90;;;;;;5134570;27;20305;-76
2024/02/11 08:24:43;;;;;;;51.88;32.45;;;10.80;99.90;;;;;;5134180;27;20263;-76
2024/02/11 08:27:11;;;;;;;54.05;32.38;;;10.80;99.90;;;;;;5134495;27;20225;-77
2024/02/11 08:29:38;;;;;;;46.88;30.35;;;10.90;99.90;;;;;;5133572;27;20222;-77
2024/02/11 08:32:05;;;;;;;55.42;30.05;;;10.90;99.90;;;;;;5134207;27;20229;-77
2024/02/11 08:34:32;;;;;;;54.35;31.25;;;10.90;99.90;;;;;;5133892;27;20693;-77
2024/02/11 08:36:59;;;;;;;55.95;32.08;;;10.90;99.90;;;;;;5134391;27;20222;-77
2024/02/11 08:39:27;;;;;;;56.22;32.42;;;10.90;99.90;;;;;;5133925;27;20251;-79
2024/02/11 08:41:55;;;;;;;56.22;31.27;;;10.90;99.90;;;;;;5134549;27;20581;-79
2024/02/11 08:44:24;;;;;;;49.40;31.80;;;10.70;99.90;;;;;;5134129;27;20226;-77
2024/02/11 08:46:52;;;;;;;52.55;32.38;;;10.70;99.90;;;;;;5134439;27;20217;-77
2024/02/11 08:49:20;;;;;;;54.70;29.58;;;10.70;99.90;;;;;;5133857;27;20698;-77
2024/02/11 08:51:47;;;;;;;49.10;30.70;;;10.80;99.90;;;;;;5134056;28;20314;-76
2024/02/11 08:54:14;;;;;;;47.72;27.58;;;10.80;99.90;;;;;;5134341;28;20226;-77
2024/02/11 08:56:43;;;;;;;45.22;31.70;;;10.90;99.90;;;;;;5133943;28;20218;-76
2024/02/11 08:59:13;;;;;;;48.20;30.98;;;10.90;99.90;;;;;;5134191;28;20320;-76
2024/02/11 09:01:43;;;;;;;53.72;30.40;;;10.90;99.90;;;;;;5133485;28;20297;-76
2024/02/11 09:04:10;;;;;;;50.63;31.25;;;11.00;99.90;;;;;;5134202;28;20230;-76
2024/02/11 09:06:37;;;;;;;50.08;30.15;;;11.00;99.90;;;;;;5133557;28;20693;-77
2024/02/11 09:09:06;;;;;;;52.35;30.48;;;11.10;99.90;;;;;;5134025;28;20558;-76
2024/02/11 09:11:33;;;;;;;56.10;31.17;;;11.10;99.90;;;;;;5133041;28;20280;-76
2024/02/11 09:14:00;;;;;;;49.90;31.92;;;11.20;99.90;;;;;;5133956;28;20226;-76
2024/02/11 09:16:29;;;;;;;53.65;33.88;;;11.20;99.90;;;;;;5133563;28;20225;-76
2024/02/11 09:21:40;;;;;;;49.97;29.80;;;11.10;99.90;;;;;;5133545;28;20263;-76
2024/02/11 09:24:07;;;;;;;62.35;35.92;;;11.20;99.90;;;;;;5133536;28;20229;-79
2024/02/11 09:26:34;;;;;;;54.35;33.33;;;11.20;99.90;;;;;;5133447;28;20218;-76
2024/02/11 09:29:01;;;;;;;53.47;30.80;;;11.30;99.90;;;;;;5133996;28;20217;-79
2024/02/11 09:31:31;;;;;;;50.90;33.60;;;11.30;99.90;;;;;;5133192;28;20222;-79
2024/02/11 09:33:58;;;;;;;54.03;32.33;;;11.30;99.90;;;;;;5133692;28;20556;-80
2024/02/11 09:36:25;;;;;;;57.90;32.28;;;11.20;99.90;;;;;;5133128;28;20222;-76
2024/02/11 09:38:53;;;;;;;46.75;29.15;;;11.30;99.90;;;;;;5133837;28;20248;-79
2024/02/11 09:41:20;;;;;;;60.08;34.10;;;11.30;99.90;;;;;;5133381;28;20305;-78
2024/02/11 09:43:50;;;;;;;50.15;33.55;;;11.30;99.90;;;;;;5133920;28;20537;-78
2024/02/11 09:46:21;;;;;;;54.53;31.58;;;11.30;99.90;;;;;;5133694;27;20303;-78
2024/02/11 09:48:55;;;;;;;57.10;32.42;;;11.20;99.90;;;;;;5136948;27;20538;-77
2024/02/11 09:51:29;;;;;;;52.30;32.30;;;11.20;99.90;;;;;;5137320;27;20304;-77
2024/02/11 09:54:00;;;;;;;58.20;34.38;;;11.20;99.90;;;;;;5133777;27;20604;-77
2024/02/11 09:56:27;;;;;;;50.92;32.35;;;11.30;99.90;;;;;;5138453;27;20225;-77
2024/02/11 09:58:55;;;;;;;50.45;31.30;;;11.30;99.90;;;;;;5137125;27;20648;-77
2024/02/11 10:01:23;;;;;;;46.78;29.23;;;11.30;99.90;;;;;;5137214;27;20279;-77
2024/02/11 10:03:57;;;;;;;58.42;33.75;;;11.30;99.90;;;;;;5136466;27;20629;-77
2024/02/11 10:06:34;;;;;;;50.58;29.70;;;11.40;99.90;;;;;;5137429;27;20221;-80
2024/02/11 10:09:04;;;;;;;47.90;29.60;;;11.40;99.90;;;;;;5136441;27;20236;-80
2024/02/11 10:11:33;;;;;;;47.85;29.73;;;11.40;99.90;;;;;;5137934;27;20325;-80
2024/02/11 10:14:02;;;;;;;48.15;30.42;;;11.50;99.90;;;;;;5127798;27;20249;-80
2024/02/11 10:16:35;;;;;;;54.08;32.05;;;11.50;99.90;;;;;;5136965;27;20296;-79
2024/02/11 10:19:05;;;;;;;45.75;29.30;;;11.50;99.90;;;;;;5124175;27;20255;-80
2024/02/11 10:21:32;;;;;;;43.85;30.90;;;11.50;99.90;;;;;;5138427;27;20222;-80
2024/02/11 10:23:59;;;;;;;41.20;28.70;;;11.50;99.90;;;;;;5136952;27;20226;-80
2024/02/11 10:26:26;;;;;;;38.13;25.60;;;11.50;99.90;;;;;;5137608;27;20241;-80
2024/02/11 10:28:53;;;;;;;42.70;26.45;;;11.60;99.90;;;;;;5136478;27;20687;-80
2024/02/11 10:31:22;;;;;;;39.22;28.80;;;11.50;99.90;;;;;;5136810;27;20305;-80
2024/02/11 10:33:49;;;;;;;42.20;28.08;;;11.50;99.90;;;;;;5136382;27;20679;-80
2024/02/11 10:36:20;;;;;;;38.67;26.50;;;11.50;99.90;;;;;;5136553;27;20214;-80
2024/02/11 10:38:52;;;;;;;37.58;27.38;;;11.50;99.90;;;;;;5136049;27;20235;-80
2024/02/11 10:41:22;;;;;;;43.03;28.42;;;11.50;99.90;;;;;;5136843;27;20222;-76
2024/02/11 10:43:50;;;;;;;39.97;26.48;;;11.50;99.90;;;;;;5135781;27;20226;-76
2024/02/11 10:46:17;;;;;;;39.00;27.52;;;11.50;99.90;;;;;;5136596;27;20241;-77
2024/02/11 10:48:47;;;;;;;40.35;25.70;;;11.50;99.90;;;;;;5136245;27;20685;-77
2024/02/11 10:51:23;;;;;;;36.65;23.83;;;11.60;99.90;;;;;;5136065;27;20218;-76
2024/02/11 10:53:58;;;;;;;42.47;27.70;;;11.60;99.90;;;;;;5133848;27;20224;-78
2024/02/11 10:56:30;;;;;;;38.58;25.70;;;11.50;99.90;;;;;;5136369;27;20282;-80
2024/02/11 10:59:14;;;;;;;40.85;25.92;;;11.60;99.90;;;;;;5135431;27;20222;-78
2024/02/11 11:01:41;;;;;;;41.10;25.20;;;11.60;99.90;;;;;;5135985;27;20217;-81
2024/02/11 11:04:14;;;;;;;34.75;24.15;;;11.60;99.90;;;;;;5134944;27;20880;-78
2024/02/11 11:06:43;;;;;;;35.97;24.58;;;11.60;99.90;;;;;;5135689;27;20671;-78
2024/02/11 11:09:11;;;;;;;39.22;25.42;;;11.60;99.90;;;;;;5135155;27;20222;-77
2024/02/11 11:11:38;;;;;;;37.33;23.92;;;11.60;99.90;;;;;;5135816;27;20217;-78
2024/02/11 11:14:09;;;;;;;35.50;24.65;;;11.60;99.90;;;;;;5135028;27;20230;-77
2024/02/11 11:16:41;;;;;;;36.45;26.10;;;11.70;99.90;;;;;;5135817;27;20314;-80
2024/02/11 11:19:10;;;;;;;38.83;24.92;;;11.70;99.90;;;;;;5135469;27;20226;-80
2024/02/11 11:21:37;;;;;;;36.88;24.80;;;11.70;99.90;;;;;;5135228;27;20229;-76
2024/02/11 11:24:10;;;;;;;32.40;23.70;;;11.70;99.90;;;;;;5134826;27;20261;-77
2024/02/11 11:26:38;;;;;;;34.90;25.65;;;11.70;99.90;;;;;;5135962;27;20226;-76
2024/02/11 11:29:05;;;;;;;33.97;25.05;;;11.70;99.90;;;;;;5134090;27;20221;-79
2024/02/11 11:31:34;;;;;;;33.38;25.35;;;11.70;99.90;;;;;;5135433;27;20240;-79
2024/02/11 11:34:01;;;;;;;32.45;24.45;;;11.70;99.90;;;;;;5134968;27;20237;-80
2024/02/11 11:36:33;;;;;;;38.92;25.30;;;11.70;99.90;;;;;;5134896;27;20667;-80
2024/02/11 11:39:11;;;;;;;31.42;24.90;;;11.80;99.90;;;;;;5134718;27;20582;-80
2024/02/11 11:41:38;;;;;;;34.78;24.50;;;11.80;99.90;;;;;;5135343;27;20228;-79
2024/02/11 11:44:05;;;;;;;37.33;26.25;;;11.80;99.90;;;;;;5134629;27;20240;-76
2024/02/11 11:46:34;;;;;;;41.33;28.38;;;11.90;99.90;;;;;;5135371;27;20222;-79
2024/02/11 11:49:05;;;;;;;33.15;24.65;;;11.80;99.90;;;;;;5134288;27;20222;-76
2024/02/11 11:51:32;;;;;;;34.70;23.98;;;11.80;99.90;;;;;;5135388;27;20218;-79
2024/02/11 11:54:06;;;;;;;35.53;25.65;;;11.80;99.90;;;;;;5131429;27;20257;-77
2024/02/11 11:56:34;;;;;;;30.90;22.73;;;11.80;99.90;;;;;;5133034;27;20294;-76
2024/02/11 11:59:04;;;;;;;37.53;24.73;;;11.80;99.90;;;;;;5130290;27;20228;-77
2024/02/11 12:01:34;;;;;;;37.22;24.85;;;11.70;99.90;;;;;;5129983;27;20214;-80
2024/02/11 12:04:01;;;;;;;31.25;23.50;;;11.70;99.90;;;;;;5130931;27;20218;-79
2024/02/11 12:06:28;;;;;;;29.02;22.92;;;11.70;99.90;;;;;;5131684;27;20210;-80
2024/02/11 12:08:55;;;;;;;38.03;24.55;;;11.70;99.90;;;;;;5131057;27;20206;-77
2024/02/11 12:11:24;;;;;;;36.72;25.98;;;11.70;99.90;;;;;;5132431;27;20227;-80
2024/02/11 12:13:53;;;;;;;36.33;24.70;;;11.70;99.90;;;;;;5132520;27;20221;-80
2024/02/11 12:16:22;;;;;;;33.72;23.85;;;11.70;99.90;;;;;;5132384;27;20301;-80
2024/02/11 12:18:49;;;;;;;30.58;22.98;;;11.70;99.90;;;;;;5130775;27;20228;-77
2024/02/11 12:21:20;;;;;;;39.05;25.08;;;11.70;99.90;;;;;;5131902;27;20218;-80
2024/02/11 12:23:48;;;;;;;33.83;24.85;;;11.80;99.90;;;;;;5134316;27;20213;-80
2024/02/11 12:26:19;;;;;;;31.83;23.98;;;11.80;99.90;;;;;;5116687;27;20227;-80
2024/02/11 12:28:52;;;;;;;35.22;25.40;;;11.80;99.90;;;;;;5121843;27;20275;-80
2024/02/11 12:31:23;;;;;;;38.28;26.90;;;11.80;99.90;;;;;;5121699;27;20590;-80
2024/02/11 12:33:51;;;;;;;32.30;26.02;;;11.80;99.90;;;;;;5133827;27;20230;-80
2024/02/11 12:36:21;;;;;;;34.00;24.27;;;11.80;99.90;;;;;;5134853;27;20218;-78
2024/02/11 12:38:50;;;;;;;30.98;23.35;;;11.80;99.90;;;;;;5120003;28;20688;-79
2024/02/11 12:41:22;;;;;;;39.50;27.55;;;11.80;99.90;;;;;;5127982;27;20291;-80